Time;durP1;ratioP1;P1;durP2;ratioP2;P2;SDS_P1;SDS_P2;PMS_P1;PMS_P2;Temp;Humidity;BMP_temperature;BMP_pressure;BME280_temperature;BME280_humidity;BME280_pressure;Samples;Min_cycle;Max_cycle;Signal;HPM_P1;HPM_P2
2022/06/06 00:01:59;;;;;;;3.80;3.30;;;;;;;17.30;90.50;100439.60;105597;1281;59989;-83
2022/06/06 00:04:36;;;;;;;9.00;3.10;;;;;;;17.36;89.59;100433.31;105651;1281;73290;-83
2022/06/06 00:07:09;;;;;;;3.70;3.30;;;;;;;17.40;90.52;100432.17;105802;1281;74365;-83
2022/06/06 00:09:36;;;;;;;4.40;3.10;;;;;;;17.40;91.30;100434.72;105982;1281;72955;-83
2022/06/06 00:12:06;;;;;;;7.10;3.50;;;;;;;17.39;90.79;100438.23;106007;1281;63460;-84
2022/06/06 00:14:34;;;;;;;5.00;3.30;;;;;;;17.40;90.29;100437.16;106193;1281;61715;-84
2022/06/06 00:17:02;;;;;;;5.30;3.00;;;;;;;17.39;89.34;100446.92;105881;1280;74256;-83
2022/06/06 00:19:31;;;;;;;4.40;3.00;;;;;;;17.37;88.69;100446.11;106085;1281;72271;-84
2022/06/06 00:21:58;;;;;;;4.20;3.10;;;;;;;17.36;87.48;100447.79;105711;1281;72943;-84
2022/06/06 00:24:26;;;;;;;5.10;3.40;;;;;;;17.36;87.61;100449.06;105775;1281;62288;-85
2022/06/06 00:27:04;;;;;;;;;;;;;;;17.34;87.98;100452.67;105557;1281;60399;-85
2022/06/06 00:34:49;;;;;;;5.60;3.20;;;;;;;17.27;88.60;100448.95;105786;1281;71570;-84
2022/06/06 00:37:19;;;;;;;4.40;3.20;;;;;;;17.24;88.94;100451.92;106024;1281;62827;-83
2022/06/06 00:39:47;;;;;;;4.60;3.30;;;;;;;17.22;88.54;100451.46;106102;1280;60675;-82
2022/06/06 00:42:35;;;;;;;3.80;2.70;;;;;;;17.19;88.37;100446.84;106122;1279;74327;-82
2022/06/06 00:45:14;;;;;;;3.70;3.00;;;;;;;17.15;88.07;100446.84;106264;1279;72203;-82
2022/06/06 00:47:43;;;;;;;5.30;3.20;;;;;;;17.11;87.99;100443.79;106464;1281;72887;-82
2022/06/06 00:50:22;;;;;;;3.40;2.90;;;;;;;17.06;87.59;100452.70;106237;1280;62079;-85
2022/06/06 00:52:52;;;;;;;5.00;3.20;;;;;;;17.02;87.42;100448.94;105482;1281;61395;-83
2022/06/06 00:58:40;;;;;;;3.90;3.00;;;;;;;16.93;87.46;100453.65;105714;1281;67060;-83
2022/06/06 01:01:08;;;;;;;4.20;2.80;;;;;;;16.87;87.66;100454.34;105908;1281;73946;-83
2022/06/06 01:03:38;;;;;;;5.20;3.10;;;;;;;16.81;87.79;100454.70;105682;1284;62964;-84
2022/06/06 01:06:17;;;;;;;4.60;2.60;;;;;;;16.74;87.73;100457.45;105737;1281;61326;-84
2022/06/06 01:08:46;;;;;;;3.70;2.90;;;;;;;16.68;87.52;100466.27;105884;1281;74366;-83
2022/06/06 01:11:15;;;;;;;3.90;3.00;;;;;;;16.65;87.07;100464.52;105701;1282;71526;-83
2022/06/06 01:13:46;;;;;;;3.20;2.90;;;;;;;16.64;87.21;100461.73;105826;1281;74643;-83
2022/06/06 01:16:35;;;;;;;3.80;3.00;;;;;;;16.60;87.44;100462.64;105854;1281;62137;-83
2022/06/06 01:19:23;;;;;;;3.80;2.60;;;;;;;16.57;87.22;100457.84;105806;1281;60767;-83
2022/06/06 01:22:28;;;;;;;4.10;2.80;;;;;;;16.56;87.10;100457.20;105943;1281;74559;-84
2022/06/06 01:25:17;;;;;;;4.70;2.90;;;;;;;16.56;86.75;100454.80;105524;1280;72874;-83
2022/06/06 01:28:31;;;;;;;3.80;2.90;;;;;;;16.58;86.80;100460.45;105492;1281;73297;-83
2022/06/06 01:31:10;;;;;;;3.20;2.70;;;;;;;16.59;86.79;100457.73;105265;1283;61889;-82
2022/06/06 01:33:54;;;;;;;5.50;3.30;;;;;;;16.59;86.90;100454.73;105845;1272;60339;-83
2022/06/06 01:36:29;;;;;;;3.20;2.90;;;;;;;16.58;86.76;100453.27;105304;1282;71606;-83
2022/06/06 01:39:07;;;;;;;4.60;2.90;;;;;;;16.58;86.75;100455.98;105857;1281;71372;-83
2022/06/06 01:41:58;;;;;;;4.00;2.80;;;;;;;16.59;86.88;100458.27;105732;1283;74189;-82
2022/06/06 01:44:41;;;;;;;6.40;3.70;;;;;;;16.59;86.86;100460.74;105613;1283;64566;-82
2022/06/06 01:47:23;;;;;;;4.10;3.40;;;;;;;16.59;87.03;100463.59;105636;1283;60075;-83
2022/06/06 01:49:52;;;;;;;4.50;2.90;;;;;;;16.58;87.37;100467.68;105754;1281;73360;-83
2022/06/06 01:52:19;;;;;;;5.70;4.20;;;;;;;16.57;87.36;100471.11;105841;1283;71518;-83
2022/06/06 01:54:53;;;;;;;4.10;3.30;;;;;;;16.59;86.82;100465.23;105617;1282;72975;-83
2022/06/06 01:57:25;;;;;;;4.80;3.90;;;;;;;16.60;86.85;100464.94;105740;1281;61920;-83
2022/06/06 02:00:04;;;;;;;5.20;3.90;;;;;;;16.61;86.83;100466.25;106040;1280;60661;-83
2022/06/06 02:02:44;;;;;;;6.60;4.50;;;;;;;16.60;86.95;100466.29;105619;1279;73825;-82
2022/06/06 02:05:24;;;;;;;7.90;4.80;;;;;;;16.63;86.89;100464.02;105981;1280;71922;-85
2022/06/06 02:07:51;;;;;;;6.50;4.30;;;;;;;16.64;86.38;100464.13;105712;1280;73032;-83
2022/06/06 02:10:20;;;;;;;8.20;5.10;;;;;;;16.68;86.12;100463.59;105955;1278;63334;-82
2022/06/06 02:12:48;;;;;;;5.90;3.70;;;;;;;16.72;85.93;100464.45;106024;1280;63326;-82
2022/06/06 02:15:18;;;;;;;5.60;4.50;;;;;;;16.74;86.08;100465.52;105803;1280;74322;-83
2022/06/06 02:17:46;;;;;;;7.00;5.10;;;;;;;16.73;86.08;100459.35;105806;1280;71388;-82
2022/06/06 02:20:15;;;;;;;7.10;5.00;;;;;;;16.71;86.02;100457.83;105804;1280;72911;-83
2022/06/06 02:23:03;;;;;;;17.30;5.90;;;;;;;16.67;85.95;100454.20;105424;1281;63531;-83
2022/06/06 02:25:34;;;;;;;6.90;5.70;;;;;;;16.65;86.18;100461.85;105742;1278;59499;-82
2022/06/06 02:28:04;;;;;;;9.00;6.00;;;;;;;16.63;86.51;100463.73;105799;1280;74770;-85
2022/06/06 02:30:34;;;;;;;9.10;5.60;;;;;;;16.60;87.03;100467.38;105892;1279;73002;-83
2022/06/06 02:33:06;;;;;;;11.20;7.10;;;;;;;16.58;87.27;100465.20;105884;1277;72532;-84
2022/06/06 02:35:40;;;;;;;9.60;7.40;;;;;;;16.56;87.40;100467.29;105756;1280;61966;-83
2022/06/06 02:48:27;;;;;;;13.90;8.80;;;;;;;16.54;87.57;100474.92;106075;1277;72116;-83
2022/06/06 02:50:54;;;;;;;15.50;10.40;;;;;;;16.54;87.56;100470.31;106355;1277;63535;-83
2022/06/06 02:53:22;;;;;;;16.20;10.00;;;;;;;16.55;87.42;100474.38;106014;1277;59484;-83
2022/06/06 02:55:53;;;;;;;14.00;10.00;;;;;;;16.58;87.34;100480.73;106041;1277;73078;-82
2022/06/06 02:58:28;;;;;;;12.40;8.50;;;;;;;16.59;87.55;100481.64;105994;1277;71430;-84
2022/06/06 03:01:05;;;;;;;14.00;8.50;;;;;;;16.58;87.62;100478.02;106059;1277;72953;-83
2022/06/06 03:03:34;;;;;;;12.00;8.50;;;;;;;16.57;87.48;100477.90;106328;1277;62320;-82
2022/06/06 03:06:29;;;;;;;14.50;9.50;;;;;;;16.54;87.56;100477.02;105954;1278;60448;-83
2022/06/06 03:09:27;;;;;;;12.10;8.60;;;;;;;16.51;87.81;100481.80;105984;1275;74182;-83
2022/06/06 03:11:54;;;;;;;15.10;9.50;;;;;;;16.46;88.02;100480.10;105858;1278;72541;-83
2022/06/06 03:15:09;;;;;;;12.60;8.70;;;;;;;16.42;88.43;100481.35;106843;1268;71338;-83
2022/06/06 03:21:47;;;;;;;13.00;9.10;;;;;;;16.31;88.95;100489.25;106044;1275;63103;-84
2022/06/06 03:24:44;;;;;;;;;;;;;;;16.28;89.28;100491.45;106233;1276;75268;-83
2022/06/06 03:27:41;;;;;;;12.90;9.30;;;;;;;16.25;89.58;100488.14;106482;1275;71803;-83
2022/06/06 03:30:20;;;;;;;13.20;9.20;;;;;;;16.21;89.84;100487.95;106218;1275;74706;-82
2022/06/06 03:32:56;;;;;;;12.00;9.10;;;;;;;16.17;90.09;100489.02;106193;1274;63376;-83
2022/06/06 03:35:23;;;;;;;13.70;8.90;;;;;;;16.15;90.16;100493.85;106251;1274;60595;-82
2022/06/06 03:38:25;;;;;;;11.00;7.80;;;;;;;16.13;90.49;100494.61;106440;1274;60313;-82
2022/06/06 03:41:29;;;;;;;10.60;8.00;;;;;;;16.12;90.76;100491.45;106311;1277;71368;-83
2022/06/06 03:44:13;;;;;;;11.30;8.40;;;;;;;16.12;90.71;100494.90;106354;1277;73446;-83
2022/06/06 03:47:12;;;;;;;12.10;8.20;;;;;;;16.19;90.05;100497.56;105854;1279;63081;-83
2022/06/06 03:50:19;;;;;;;11.50;7.20;;;;;;;16.26;89.61;100497.06;105777;1277;61181;-84
2022/06/06 03:53:21;;;;;;;10.20;7.70;;;;;;;16.34;89.13;100500.83;105760;1266;151037;-87
2022/06/06 03:56:32;;;;;;;10.60;7.50;;;;;;;16.42;88.41;100498.59;108075;1276;72076;-87
2022/06/06 03:59:20;;;;;;;11.50;7.50;;;;;;;16.49;87.85;100497.99;107732;1276;71941;-87
2022/06/06 04:01:54;;;;;;;9.80;6.60;;;;;;;16.56;87.47;100502.52;107946;1276;63491;-87
2022/06/06 04:04:33;;;;;;;;;;;;;;;16.62;87.04;100503.41;107961;1276;61360;-88
2022/06/06 04:07:11;;;;;;;12.60;7.70;;;;;;;16.66;86.42;100504.61;108245;1276;75643;-86
2022/06/06 04:09:44;;;;;;;11.80;7.70;;;;;;;16.70;86.60;100511.58;107736;1276;71720;-88
2022/06/06 04:15:50;;;;;;;10.50;7.40;;;;;;;16.76;85.29;100522.28;108223;1277;60687;-83
2022/06/06 04:18:30;;;;;;;12.90;8.50;;;;;;;16.81;84.87;100523.30;108362;1276;59334;-83
2022/06/06 04:21:12;;;;;;;13.60;8.60;;;;;;;16.84;84.79;100522.32;108287;1275;76151;-83
2022/06/06 04:27:21;;;;;;;14.60;7.70;;;;;;;16.87;84.44;100521.09;105916;1275;73599;-83
2022/06/06 04:30:09;;;;;;;12.40;8.30;;;;;;;16.90;84.29;100527.41;105782;1276;62302;-83
2022/06/06 04:33:14;;;;;;;18.80;10.00;;;;;;;16.95;83.21;100536.27;105764;1277;60567;-83
2022/06/06 04:36:07;;;;;;;15.70;10.40;;;;;;;16.99;83.00;100534.39;105997;1276;74170;-83
2022/06/06 04:38:42;;;;;;;15.00;9.70;;;;;;;17.02;82.65;100535.39;105734;1276;71386;-84
2022/06/06 04:41:11;;;;;;;16.00;11.10;;;;;;;17.04;82.90;100537.06;105907;1277;72934;-84
2022/06/06 04:44:03;;;;;;;16.40;11.50;;;;;;;17.05;82.57;100538.27;105978;1275;62658;-82
2022/06/06 04:46:49;;;;;;;18.80;11.80;;;;;;;17.07;82.64;100538.70;106062;1277;60512;-84
2022/06/06 04:49:16;;;;;;;21.60;12.80;;;;;;;17.08;82.57;100537.82;105917;1277;74541;-83
2022/06/06 04:51:53;;;;;;;;;;;;;;;17.08;82.09;100542.37;105991;1276;72337;-87
2022/06/06 04:54:23;;;;;;;20.60;12.80;;;;;;;17.06;82.04;100544.83;105954;1276;73196;-84
2022/06/06 04:56:58;;;;;;;22.40;13.50;;;;;;;17.03;82.47;100546.09;106073;1276;62283;-83
2022/06/06 04:59:41;;;;;;;20.70;12.70;;;;;;;16.99;82.58;100552.65;105896;1276;61425;-84
2022/06/06 05:02:09;;;;;;;;;;;;;;;16.94;82.95;100553.85;106113;1276;75145;-83
2022/06/06 05:04:46;;;;;;;17.00;11.00;;;;;;;16.91;83.54;100558.41;105838;1276;71471;-83
2022/06/06 05:07:29;;;;;;;17.10;9.20;;;;;;;16.88;83.73;100564.70;105846;1276;72983;-83
2022/06/06 05:13:28;;;;;;;19.20;10.50;;;;;;;16.88;83.96;100567.30;106322;1277;60562;-84
2022/06/06 05:16:13;;;;;;;16.20;10.40;;;;;;;16.90;83.29;100578.04;106140;1276;74626;-84
2022/06/06 05:19:07;;;;;;;17.20;11.50;;;;;;;16.91;83.20;100580.38;106287;1276;71608;-84
2022/06/06 05:21:52;;;;;;;14.60;9.40;;;;;;;16.97;82.34;100581.14;106679;1277;71990;-83
2022/06/06 05:24:51;;;;;;;17.30;10.70;;;;;;;16.98;81.08;100570.09;106464;1276;61249;-85
2022/06/06 05:27:34;;;;;;;15.10;10.40;;;;;;;17.01;80.62;100569.39;106235;1276;60357;-83
2022/06/06 05:30:31;;;;;;;15.80;9.80;;;;;;;17.04;80.51;100579.02;106058;1276;74879;-84
2022/06/06 05:33:21;;;;;;;15.00;9.50;;;;;;;17.07;80.54;100584.60;106582;1276;72354;-82
2022/06/06 05:38:30;;;;;;;18.50;10.90;;;;;;;17.11;80.77;100588.03;105860;1276;63450;-83
2022/06/06 05:41:15;;;;;;;16.00;9.10;;;;;;;17.08;79.76;100586.27;106006;1277;60607;-83
2022/06/06 05:44:16;;;;;;;16.00;10.00;;;;;;;17.11;80.01;100589.30;105897;1277;75185;-83
2022/06/06 05:46:45;;;;;;;15.10;9.20;;;;;;;17.14;79.22;100593.15;105990;1276;69617;-82
2022/06/06 05:49:20;;;;;;;14.00;9.40;;;;;;;17.13;78.38;100605.86;106207;1277;72943;-84
2022/06/06 05:52:01;;;;;;;12.30;7.10;;;;;;;17.08;77.33;100607.02;106119;1276;63223;-84
2022/06/06 05:54:53;;;;;;;10.60;5.70;;;;;;;17.03;77.06;100612.42;106017;1276;62159;-84
2022/06/06 06:00:40;;;;;;;15.40;8.40;;;;;;;17.04;78.08;100613.00;105978;1275;71413;-84
2022/06/06 06:03:44;;;;;;;12.80;6.90;;;;;;;17.09;77.23;100613.16;105894;1276;70718;-85
2022/06/06 06:06:29;;;;;;;10.50;7.10;;;;;;;17.19;77.40;100618.60;105900;1276;62695;-84
2022/06/06 06:09:34;;;;;;;11.00;7.20;;;;;;;17.27;77.29;100622.19;105851;1275;60473;-84
2022/06/06 06:12:03;;;;;;;13.10;7.10;;;;;;;17.28;75.57;100628.16;105772;1279;72933;-83
2022/06/06 06:15:16;;;;;;;10.70;6.60;;;;;;;17.26;75.76;100635.48;105540;1280;73291;-84
2022/06/06 06:17:44;;;;;;;11.80;7.10;;;;;;;17.27;76.53;100630.06;105838;1279;74080;-84
2022/06/06 06:20:18;;;;;;;11.90;7.80;;;;;;;17.28;76.51;100638.19;105513;1281;63714;-84
2022/06/06 06:23:07;;;;;;;11.10;8.00;;;;;;;17.28;76.66;100640.73;105965;1267;60533;-82
2022/06/06 06:26:23;;;;;;;12.20;8.00;;;;;;;17.33;76.48;100641.52;105912;1276;77775;-83
2022/06/06 06:28:58;;;;;;;16.50;9.50;;;;;;;17.37;76.62;100645.39;105599;1281;71457;-83
2022/06/06 06:31:47;;;;;;;14.00;8.90;;;;;;;17.39;76.83;100651.94;105610;1283;72958;-83
2022/06/06 06:34:57;;;;;;;20.90;11.00;;;;;;;17.41;76.88;100655.88;105247;1283;62615;-83
2022/06/06 06:37:42;;;;;;;17.20;11.50;;;;;;;17.45;76.38;100657.27;105608;1281;60723;-84
2022/06/06 06:40:24;;;;;;;14.70;9.80;;;;;;;17.49;75.74;100660.63;105572;1281;73728;-84
2022/06/06 06:43:13;;;;;;;20.10;12.70;;;;;;;17.57;75.52;100651.63;105555;1281;72336;-82
2022/06/06 06:46:03;;;;;;;19.70;12.30;;;;;;;17.73;75.58;100645.98;105392;1283;75148;-85
2022/06/06 06:48:43;;;;;;;16.60;10.00;;;;;;;17.89;75.14;100651.03;105614;1281;63122;-85
2022/06/06 06:51:42;;;;;;;15.40;10.30;;;;;;;18.01;74.21;100657.00;105797;1281;60549;-86
2022/06/06 06:54:41;;;;;;;15.60;9.60;;;;;;;18.15;73.73;100653.44;105344;1282;75163;-85
2022/06/06 06:58:16;;;;;;;14.10;10.00;;;;;;;18.39;73.24;100652.80;105462;1281;72443;-85
2022/06/06 07:01:00;;;;;;;14.20;9.40;;;;;;;18.56;72.32;100656.65;104973;1285;71822;-87
2022/06/06 07:10:17;;;;;;;14.20;9.50;;;;;;;18.67;70.89;100656.86;106339;1274;75086;-85
2022/06/06 07:13:05;;;;;;;12.70;8.80;;;;;;;18.73;70.01;100658.05;106273;1276;72347;-87
2022/06/06 07:15:48;;;;;;;11.60;7.70;;;;;;;18.86;69.69;100656.25;106158;1274;73073;-85
2022/06/06 07:18:17;;;;;;;11.70;8.10;;;;;;;19.11;69.72;100655.17;106131;1276;62234;-85
2022/06/06 07:20:46;;;;;;;11.00;8.30;;;;;;;19.24;68.29;100649.62;106264;1274;60566;-86
2022/06/06 07:23:14;;;;;;;10.70;7.20;;;;;;;19.28;68.41;100651.22;105841;1277;73946;-85
2022/06/06 07:25:48;;;;;;;11.90;7.90;;;;;;;19.32;67.25;100653.33;106046;1274;72154;-85
2022/06/06 07:28:22;;;;;;;11.60;7.80;;;;;;;19.43;66.45;100651.14;106031;1274;73070;-85
2022/06/06 07:31:12;;;;;;;8.90;6.10;;;;;;;19.52;65.89;100652.63;105924;1277;61219;-84
2022/06/06 07:47:05;;;;;;;11.30;7.70;;;;;;;19.96;64.76;100653.23;106268;1274;60603;-84
2022/06/06 07:49:40;;;;;;;10.70;7.30;;;;;;;20.01;63.95;100654.86;106162;1274;60466;-85
2022/06/06 07:52:48;;;;;;;8.90;6.70;;;;;;;19.92;63.71;100650.65;106207;1274;73002;-84
2022/06/06 07:55:57;;;;;;;10.60;7.80;;;;;;;19.93;64.86;100645.51;106103;1274;73164;-84
2022/06/06 07:58:58;;;;;;;9.80;6.80;;;;;;;20.04;64.64;100651.64;106012;1274;72945;-85
2022/06/06 08:02:03;;;;;;;10.90;7.00;;;;;;;19.90;64.03;100653.64;105952;1274;60583;-85
2022/06/06 08:04:59;;;;;;;8.20;6.20;;;;;;;19.74;63.73;100654.90;106092;1274;60555;-85
2022/06/06 08:07:53;;;;;;;9.60;6.80;;;;;;;19.65;64.49;100653.12;105987;1274;74537;-85
2022/06/06 08:13:39;;;;;;;9.90;7.00;;;;;;;19.94;64.12;100659.48;107233;1263;71729;31
2022/06/06 08:20:03;;;;;;;10.70;6.40;;;;;;;20.09;63.00;100670.33;108089;1264;157010;-82
2022/06/06 08:22:32;;;;;;;9.30;6.20;;;;;;;20.30;61.56;100662.23;108151;1265;74215;-85
2022/06/06 08:25:04;;;;;;;7.60;5.30;;;;;;;20.43;60.85;100664.34;106857;1277;71453;-82
2022/06/06 08:27:33;;;;;;;6.70;5.10;;;;;;;20.51;60.62;100668.48;106635;1277;73726;-83
2022/06/06 08:30:01;;;;;;;7.80;5.70;;;;;;;20.44;61.03;100668.25;106530;1277;61463;-85
2022/06/06 08:32:29;;;;;;;8.30;5.40;;;;;;;20.47;61.80;100670.03;106206;1277;59708;-83
2022/06/06 08:34:57;;;;;;;6.20;4.90;;;;;;;20.45;60.59;100675.63;106328;1277;74094;-83
2022/06/06 08:37:44;;;;;;;9.60;5.30;;;;;;;20.51;60.16;100675.73;106533;1277;72706;-81
2022/06/06 08:41:01;;;;;;;7.00;4.80;;;;;;;20.58;60.19;100675.59;106400;1277;74138;-82
2022/06/06 08:44:06;;;;;;;6.20;4.10;;;;;;;20.79;59.87;100668.16;106336;1277;60687;-82
2022/06/06 08:46:42;;;;;;;;;;;;;;;21.11;59.17;100670.50;106249;1277;60431;-80
2022/06/06 08:53:14;;;;;;;4.60;3.40;;;;;;;21.49;57.70;100652.82;106630;1277;72873;-81
2022/06/06 08:55:50;;;;;;;3.90;2.80;;;;;;;21.62;56.48;100657.37;108461;1277;72893;-81
2022/06/06 08:58:41;;;;;;;4.90;2.90;;;;;;;21.53;55.52;100663.92;106520;1277;60659;-83
2022/06/06 09:01:30;;;;;;;6.00;3.50;;;;;;;21.35;56.15;100658.73;106386;1277;60687;-83
2022/06/06 09:04:31;;;;;;;5.60;3.60;;;;;;;21.14;56.85;100663.93;106472;1277;77440;-82
2022/06/06 09:07:13;;;;;;;4.70;3.40;;;;;;;20.98;57.21;100662.97;107328;1277;71347;-82
2022/06/06 09:10:31;;;;;;;4.60;3.30;;;;;;;20.88;57.53;100658.11;107181;1277;75199;-85
2022/06/06 09:13:38;;;;;;;5.70;3.90;;;;;;;20.77;57.32;100661.23;106689;1277;61812;-84
2022/06/06 09:16:26;;;;;;;5.40;2.80;;;;;;;20.93;57.38;100658.68;106569;1277;60330;-84
2022/06/06 09:19:26;;;;;;;3.70;2.60;;;;;;;21.20;56.60;100643.79;106704;1277;75110;-86
2022/06/06 09:22:17;;;;;;;3.50;2.00;;;;;;;21.47;55.71;100653.33;106472;1277;72373;-82
2022/06/06 09:24:59;;;;;;;4.40;2.60;;;;;;;21.67;54.16;100649.67;106297;1277;73420;-82
2022/06/06 09:27:44;;;;;;;8.10;2.50;;;;;;;21.83;54.23;100660.02;106324;1277;60849;-81
2022/06/06 09:30:46;;;;;;;4.30;2.50;;;;;;;21.85;52.52;100666.05;106287;1277;60674;-81
2022/06/06 09:33:45;;;;;;;3.90;2.00;;;;;;;21.71;52.19;100664.73;106434;1277;74171;-81
2022/06/06 09:36:23;;;;;;;3.00;1.80;;;;;;;21.70;53.39;100661.85;106428;1277;70884;-82
2022/06/06 09:39:16;;;;;;;3.20;2.20;;;;;;;21.86;52.67;100656.55;106328;1277;74388;-81
2022/06/06 09:41:54;;;;;;;3.80;2.30;;;;;;;22.00;52.86;100649.75;106325;1277;60720;-84
2022/06/06 09:44:46;;;;;;;3.90;2.40;;;;;;;21.96;51.94;100653.38;106287;1277;60589;-86
2022/06/06 09:47:18;;;;;;;3.60;2.00;;;;;;;22.21;52.00;100648.48;106503;1277;75583;-82
2022/06/06 09:50:17;;;;;;;2.70;1.50;;;;;;;22.29;48.69;100659.88;106368;1277;71424;-82
2022/06/06 09:53:12;;;;;;;2.60;1.60;;;;;;;22.13;48.66;100659.19;106289;1277;72841;-83
2022/06/06 09:59:47;;;;;;;2.80;2.10;;;;;;;21.87;50.08;100651.42;105718;1285;60656;-81
2022/06/06 10:02:34;;;;;;;3.00;1.80;;;;;;;21.98;49.30;100655.02;105825;1284;73278;-83
2022/06/06 10:05:25;;;;;;;3.50;2.00;;;;;;;22.16;49.04;100644.64;106448;1277;72386;-82
2022/06/06 10:08:23;;;;;;;3.10;1.70;;;;;;;22.37;48.30;100644.90;106425;1277;72988;-84
2022/06/06 10:10:56;;;;;;;3.30;1.40;;;;;;;22.32;47.10;100644.78;106236;1280;60656;-83
2022/06/06 10:13:59;;;;;;;2.20;1.30;;;;;;;22.33;46.99;100632.96;106495;1277;61873;-84
2022/06/06 10:17:04;;;;;;;3.40;1.60;;;;;;;22.25;46.70;100634.12;105958;1278;75359;-82
2022/06/06 10:19:33;;;;;;;1.80;1.00;;;;;;;22.11;46.89;100647.23;106528;1277;71365;-84
2022/06/06 10:22:21;;;;;;;2.80;1.40;;;;;;;22.05;45.96;100640.30;106424;1277;72498;-83
2022/06/06 10:25:09;;;;;;;2.70;1.20;;;;;;;22.09;46.21;100637.36;106272;1277;60746;-83
2022/06/06 10:27:48;;;;;;;1.80;1.20;;;;;;;22.19;45.27;100637.34;106243;1277;60584;-85
2022/06/06 10:30:23;;;;;;;4.30;1.10;;;;;;;22.35;45.72;100648.70;106374;1277;74217;-82
2022/06/06 10:35:54;;;;;;;4.20;1.40;;;;;;;22.56;44.95;100639.46;106877;1265;74796;-82
2022/06/06 10:38:29;;;;;;;3.30;1.10;;;;;;;22.69;45.21;100648.17;106601;1274;61847;-85
2022/06/06 10:41:17;;;;;;;2.10;1.30;;;;;;;22.87;44.63;100645.46;106610;1276;61701;-82
2022/06/06 10:44:02;;;;;;;2.40;1.30;;;;;;;22.97;42.97;100642.56;106372;1276;73628;-82
2022/06/06 10:47:26;;;;;;;2.70;1.30;;;;;;;23.03;43.62;100644.86;106477;1276;70919;-81
2022/06/06 10:50:11;;;;;;;4.00;1.00;;;;;;;23.04;44.11;100655.58;106494;1276;73081;-82
2022/06/06 10:53:29;;;;;;;2.90;1.20;;;;;;;23.06;45.51;100658.35;106521;1276;60675;-81
2022/06/06 10:56:13;;;;;;;2.00;1.20;;;;;;;22.80;46.72;100662.33;106058;1281;60539;-83
2022/06/06 10:58:44;;;;;;;;;;;;;;;22.52;47.08;100658.02;106565;1275;73621;-82
2022/06/06 11:01:29;;;;;;;2.30;1.20;;;;;;;22.21;46.97;100653.84;106745;1276;72858;-83
2022/06/06 11:04:39;;;;;;;1.60;1.10;;;;;;;21.82;47.54;100650.88;106644;1275;74039;-89
2022/06/06 11:07:51;;;;;;;1.40;0.80;;;;;;;21.73;47.41;100650.67;106580;1273;60748;-84
2022/06/06 11:10:32;;;;;;;1.50;0.80;;;;;;;21.87;46.66;100654.13;106866;1273;60527;-84
2022/06/06 11:13:26;;;;;;;2.80;1.40;;;;;;;21.99;45.70;100654.48;107104;1272;75610;-83
2022/06/06 11:16:14;;;;;;;1.70;0.80;;;;;;;22.17;44.00;100653.25;106683;1273;73133;-82
2022/06/06 11:19:17;;;;;;;0.90;0.60;;;;;;;22.32;42.38;100656.20;106894;1273;73005;-82
2022/06/06 11:21:56;;;;;;;1.10;0.50;;;;;;;22.42;42.23;100647.42;106509;1273;62432;-84
2022/06/06 11:24:50;;;;;;;2.50;1.00;;;;;;;22.44;42.66;100645.83;106587;1273;60339;-81
2022/06/06 11:27:46;;;;;;;1.80;1.00;;;;;;;22.46;43.22;100648.48;106759;1273;75124;-83
2022/06/06 11:30:22;;;;;;;0.90;0.60;;;;;;;22.45;41.30;100648.42;106667;1273;72596;-88
2022/06/06 11:33:15;;;;;;;4.90;1.00;;;;;;;22.49;41.88;100640.58;106683;1273;74119;-82
2022/06/06 11:36:01;;;;;;;1.70;0.80;;;;;;;22.58;42.17;100638.83;106988;1273;61729;-84
2022/06/06 11:39:16;;;;;;;1.40;0.80;;;;;;;22.66;42.41;100634.47;106656;1273;61311;-82
2022/06/06 11:42:01;;;;;;;1.80;0.60;;;;;;;22.68;41.20;100634.48;106945;1273;75405;-82
2022/06/06 11:44:31;;;;;;;;;;;;;;;22.81;41.03;100628.59;107244;1271;71349;-85
2022/06/06 11:47:16;;;;;;;1.30;0.60;;;;;;;23.06;42.09;100627.18;106823;1273;73312;-85
2022/06/06 11:50:13;;;;;;;1.50;0.80;;;;;;;23.35;42.02;100623.90;106979;1273;62132;-85
2022/06/06 11:53:17;;;;;;;1.70;0.70;;;;;;;23.63;41.56;100625.41;107135;1273;60667;-85
2022/06/06 11:55:59;;;;;;;1.70;0.90;;;;;;;23.83;39.97;100631.90;107148;1273;74440;-86
2022/06/06 11:58:44;;;;;;;1.80;0.90;;;;;;;23.81;39.40;100625.90;107438;1273;72403;-84
2022/06/06 12:01:49;;;;;;;2.40;0.90;;;;;;;23.89;39.01;100629.66;107949;1273;73191;-84
2022/06/06 12:04:34;;;;;;;1.10;0.60;;;;;;;23.85;38.86;100633.61;107901;1273;60779;-85
2022/06/06 12:07:30;;;;;;;1.00;0.50;;;;;;;24.09;37.19;100628.20;108023;1273;61882;-86
2022/06/06 12:10:12;;;;;;;1.90;0.50;;;;;;;24.66;35.37;100631.86;107815;1273;73254;-85
2022/06/06 12:13:09;;;;;;;2.40;0.90;;;;;;;25.23;33.51;100624.52;107741;1273;72875;-84
2022/06/06 12:16:08;;;;;;;1.50;0.50;;;;;;;25.82;33.03;100626.52;108302;1273;72938;-84
2022/06/06 12:19:04;;;;;;;2.30;0.70;;;;;;;26.27;31.67;100626.89;107496;1271;60415;-85
2022/06/06 12:22:04;;;;;;;6.20;0.60;;;;;;;26.57;31.04;100619.24;107163;1273;60718;-84
2022/06/06 12:25:10;;;;;;;1.00;0.60;;;;;;;26.73;31.34;100618.27;106757;1273;75344;-87
2022/06/06 12:28:15;;;;;;;2.20;0.50;;;;;;;27.05;30.90;100623.02;106711;1273;71813;-88
2022/06/06 12:31:11;;;;;;;1.30;0.50;;;;;;;26.68;31.41;100622.65;106869;1273;72805;-86
2022/06/06 12:33:49;;;;;;;1.40;0.80;;;;;;;26.48;32.35;100626.58;106336;1273;60331;-86
2022/06/06 12:36:22;;;;;;;1.20;0.70;;;;;;;27.04;31.23;100620.81;106722;1273;61427;-85
2022/06/06 12:39:01;;;;;;;0.90;0.60;;;;;;;27.61;30.63;100617.71;106491;1273;75202;-86
2022/06/06 12:41:50;;;;;;;1.60;0.70;;;;;;;28.02;29.46;100612.74;106686;1273;73344;-86
2022/06/06 12:44:22;;;;;;;1.70;0.50;;;;;;;28.49;28.99;100613.21;106633;1273;73853;-87
2022/06/06 12:47:04;;;;;;;0.90;0.40;;;;;;;28.84;28.14;100614.48;106753;1273;61370;-85
2022/06/06 12:49:39;;;;;;;1.50;0.60;;;;;;;29.28;27.59;100604.00;106882;1273;60722;-85
2022/06/06 12:52:36;;;;;;;1.50;0.80;;;;;;;29.71;27.51;100604.23;106639;1273;75277;-86
2022/06/06 12:55:32;;;;;;;1.00;0.50;;;;;;;29.97;26.91;100595.19;107006;1273;70685;-84
2022/06/06 12:58:14;;;;;;;1.10;0.40;;;;;;;28.79;28.56;100604.55;107264;1273;72685;-87
2022/06/06 13:04:21;;;;;;;0.70;0.50;;;;;;;29.76;27.61;100600.68;106889;1273;63032;-85
2022/06/06 13:07:09;;;;;;;1.10;0.40;;;;;;;30.78;26.03;100589.45;106514;1273;75137;-85
2022/06/06 13:10:07;;;;;;;2.60;0.50;;;;;;;31.50;25.07;100585.58;106953;1273;71750;-86
2022/06/06 13:12:52;;;;;;;3.10;0.40;;;;;;;31.76;23.69;100581.23;106884;1271;75527;-88
2022/06/06 13:15:53;;;;;;;0.60;0.40;;;;;;;31.96;23.98;100581.63;106749;1273;60501;-89
2022/06/06 13:18:44;;;;;;;0.90;0.40;;;;;;;31.65;24.25;100584.81;106331;1274;62420;-85
2022/06/06 13:21:11;;;;;;;1.10;0.40;;;;;;;31.82;24.22;100582.26;106665;1264;75405;-85
2022/06/06 13:24:16;;;;;;;0.70;0.40;;;;;;;31.83;24.31;100584.63;106565;1274;71407;-85
2022/06/06 13:26:50;;;;;;;0.80;0.30;;;;;;;32.09;23.00;100580.29;106451;1273;73463;-85
2022/06/06 13:29:35;;;;;;;1.10;0.70;;;;;;;31.61;23.62;100583.68;106422;1274;60781;-86
2022/06/06 13:32:13;;;;;;;0.80;0.40;;;;;;;30.20;25.04;100590.36;107214;1271;59751;-83
2022/06/06 13:35:04;;;;;;;1.20;0.50;;;;;;;29.07;26.63;100593.64;106471;1272;74087;-82
2022/06/06 13:37:55;;;;;;;0.70;0.40;;;;;;;27.94;28.22;100596.42;106559;1274;74963;-81
2022/06/06 13:40:37;;;;;;;3.80;0.50;;;;;;;26.82;29.92;100597.60;106460;1271;74038;-82
2022/06/06 13:43:35;;;;;;;1.60;0.40;;;;;;;26.00;30.75;100608.38;106514;1274;60556;-81
2022/06/06 13:46:19;;;;;;;2.20;0.60;;;;;;;25.15;31.94;100604.69;106503;1274;59320;-80
2022/06/06 13:48:56;;;;;;;1.10;0.30;;;;;;;24.47;33.64;100611.43;106690;1274;74374;-81
2022/06/06 13:51:57;;;;;;;1.80;0.60;;;;;;;23.97;34.16;100614.40;106545;1273;71344;-81
2022/06/06 13:54:36;;;;;;;1.20;0.90;;;;;;;23.51;35.76;100616.09;106547;1274;72872;-83